Location Glendale, AZ, US

ob KWR6634 251300Z AUTO 10000KT SKC 16/03 A2975 RMK SLPNO 

2019.05.25 1300 UTC
Wind from the E (101 degrees) at Calm MPH ( KT) gusting to 0.0 MPH (0 KT)
Visibility    Mile(s)
Sky Conditions  clear
Temperature 61.00 F (16 C)
Dew Point 37.15 F (3 C)
Relative Humidity 41%
Pressure   29.75 in. Hg (1007 hPa)
Rain  0.00 in.
Daily Rain  in.

Station Name  My Glendale Arizona Weather Station
Longitude, Latitude  -112.20133199999998, 33.58645
Elevation 1180
Station URL www.myglendalewxs.com
Software Type VWS V15.00